createdAt,value
2022-10-23T00:00:57.233Z,100448.88
2022-10-23T00:06:09.402Z,100454.44
2022-10-23T00:08:35.734Z,100449.28
2022-10-23T00:11:02.094Z,100452.03
2022-10-23T00:13:28.419Z,100460.38
2022-10-23T00:15:54.743Z,100460.78
2022-10-23T00:21:15.728Z,100463.56
2022-10-23T00:23:42.080Z,100467.16
2022-10-23T00:26:08.405Z,100463.56
2022-10-23T00:28:34.799Z,100462.34
2022-10-23T00:31:01.138Z,100472.31
2022-10-23T00:36:11.257Z,100470.72
2022-10-23T00:38:37.576Z,100469.94
2022-10-23T00:41:03.949Z,100472.34
2022-10-23T00:43:33.062Z,100475.13
2022-10-23T00:45:59.399Z,100479.53
2022-10-23T00:51:10.541Z,100482.69
2022-10-23T00:53:36.863Z,100480.31
2022-10-23T00:56:03.253Z,100485.88
2022-10-23T00:58:30.443Z,100492.22
2022-10-23T01:00:56.866Z,100506.16
2022-10-23T01:06:17.348Z,100495.81
2022-10-23T01:08:46.434Z,100503.38
2022-10-23T01:11:12.773Z,100505.38
2022-10-23T01:13:39.980Z,100502.19
2022-10-23T01:16:07.179Z,100509.72
2022-10-23T01:21:28.604Z,100515.75
2022-10-23T01:23:55.796Z,100514.94
2022-10-23T01:26:22.121Z,100511.78
2022-10-23T01:28:48.453Z,100516.16
2022-10-23T01:31:15.664Z,100509.78
2022-10-23T01:36:35.877Z,100522.88
2022-10-23T01:41:33.474Z,100520.88
2022-10-23T01:43:59.824Z,100516.53
2022-10-23T01:46:26.148Z,100526.44
2022-10-23T01:51:36.586Z,100513.69
2022-10-23T01:54:03.859Z,100517.31
2022-10-23T01:56:30.174Z,100518.09
2022-10-23T01:58:56.534Z,100516.91
2022-10-23T02:01:22.969Z,100520.50
2022-10-23T02:06:33.704Z,100526.44
2022-10-23T02:09:00.045Z,100527.28
2022-10-23T02:11:26.389Z,100526.06
2022-10-23T02:13:53.577Z,100529.25
2022-10-23T02:16:20.803Z,100527.25
2022-10-23T02:21:30.939Z,100530.84
2022-10-23T02:23:58.121Z,100544.00
2022-10-23T02:26:24.446Z,100545.19
2022-10-23T02:28:50.781Z,100542.38
2022-10-23T02:31:17.990Z,100549.56
2022-10-23T02:36:38.022Z,100550.75
2022-10-23T02:39:04.419Z,100551.97
2022-10-23T02:41:30.748Z,100562.69
2022-10-23T02:43:57.062Z,100552.75
2022-10-23T02:46:24.282Z,100552.34
2022-10-23T02:51:34.431Z,100554.72
2022-10-23T02:54:00.760Z,100550.72
2022-10-23T02:56:27.090Z,100566.63
2022-10-23T02:58:53.435Z,100565.03
2022-10-23T03:01:19.910Z,100565.88
2022-10-23T03:06:29.989Z,100559.09
2022-10-23T03:08:56.317Z,100561.50
2022-10-23T03:11:22.642Z,100557.91
2022-10-23T03:13:48.955Z,100562.31
2022-10-23T03:16:16.145Z,100561.91
2022-10-23T03:21:36.138Z,100553.94
2022-10-23T03:24:02.486Z,100551.91
2022-10-23T03:26:28.818Z,100557.09
2022-10-23T03:28:55.219Z,100553.91
2022-10-23T03:31:21.547Z,100561.50
2022-10-23T03:36:31.917Z,100556.72
2022-10-23T03:38:58.254Z,100553.13
2022-10-23T03:41:24.594Z,100559.91
2022-10-23T03:43:51.832Z,100575.44
2022-10-23T03:46:19.065Z,100574.28
2022-10-23T03:48:45.382Z,100574.66
2022-10-23T03:51:11.725Z,100573.03
2022-10-23T03:53:38.956Z,100576.63
2022-10-23T03:56:05.314Z,100581.00
2022-10-23T03:58:31.722Z,100577.06
2022-10-23T04:00:58.062Z,100580.22
2022-10-23T04:03:24.410Z,100586.56
2022-10-23T04:05:52.356Z,100583.78
2022-10-23T04:08:20.163Z,100592.56
2022-10-23T04:10:46.829Z,100600.13
2022-10-23T04:13:13.137Z,100599.72
2022-10-23T04:15:39.474Z,100600.91
2022-10-23T04:18:05.801Z,100605.28
2022-10-23T04:20:32.141Z,100610.06
2022-10-23T04:22:58.489Z,100604.47
2022-10-23T04:25:25.697Z,100606.44
2022-10-23T04:27:52.031Z,100613.59
2022-10-23T04:30:19.258Z,100612.81
2022-10-23T04:32:46.458Z,100612.81
2022-10-23T04:35:13.655Z,100615.19
2022-10-23T04:37:43.083Z,100618.81
2022-10-23T04:40:09.606Z,100619.19
2022-10-23T04:42:38.778Z,100621.97
2022-10-23T04:45:05.175Z,100625.16
2022-10-23T04:47:34.360Z,100628.72
2022-10-23T04:50:02.649Z,100622.34
2022-10-23T04:52:29.857Z,100631.09
2022-10-23T04:54:58.112Z,100635.50
2022-10-23T04:57:26.392Z,100633.13
2022-10-23T04:59:52.850Z,100636.28
2022-10-23T05:02:21.123Z,100622.38
2022-10-23T05:04:47.528Z,100631.94
2022-10-23T05:07:13.950Z,100633.16
2022-10-23T05:09:42.232Z,100629.97
2022-10-23T05:12:10.512Z,100624.00
2022-10-23T05:14:38.787Z,100628.34
2022-10-23T05:17:05.273Z,100623.19
2022-10-23T05:19:31.732Z,100622.78
2022-10-23T05:24:54.946Z,100633.94
2022-10-23T05:27:23.239Z,100634.72
2022-10-23T05:29:52.419Z,100642.25
2022-10-23T05:32:18.858Z,100642.66
2022-10-23T05:34:47.117Z,100639.50
2022-10-23T05:37:13.557Z,100645.06
2022-10-23T05:39:39.936Z,100642.28
2022-10-23T05:42:06.392Z,100655.41
2022-10-23T05:44:33.676Z,100660.59
2022-10-23T05:47:00.916Z,100655.78
2022-10-23T05:49:27.394Z,100655.78
2022-10-23T05:54:51.252Z,100666.09
2022-10-23T05:59:49.016Z,100662.13
2022-10-23T06:02:15.516Z,100655.38
2022-10-23T06:04:43.864Z,100656.97
2022-10-23T06:10:06.818Z,100656.16
2022-10-23T06:12:33.286Z,100659.41
2022-10-23T06:14:59.717Z,100664.28
2022-10-23T06:17:27.185Z,100673.09
2022-10-23T06:19:53.646Z,100675.06
2022-10-23T06:25:04.063Z,100688.28
2022-10-23T06:27:31.456Z,100680.75
2022-10-23T06:29:57.974Z,100691.91
2022-10-23T06:32:25.338Z,100691.09
2022-10-23T06:34:52.898Z,100689.13
2022-10-23T06:40:14.462Z,100687.53
2022-10-23T06:42:42.434Z,100686.38
2022-10-23T06:45:09.075Z,100696.69
2022-10-23T06:47:35.617Z,100697.94
2022-10-23T06:50:02.050Z,100706.69
2022-10-23T06:55:23.564Z,100712.66
2022-10-23T06:57:49.969Z,100721.03
2022-10-23T07:00:17.284Z,100721.03
2022-10-23T07:02:43.929Z,100717.44
2022-10-23T07:05:13.657Z,100726.19
2022-10-23T07:10:35.329Z,100719.81
2022-10-23T07:13:02.669Z,100721.78
2022-10-23T07:15:29.107Z,100717.81
2022-10-23T07:17:57.386Z,100712.59
2022-10-23T07:20:23.755Z,100712.63
2022-10-23T07:25:34.350Z,100721.78
2022-10-23T07:28:00.759Z,100721.78
2022-10-23T07:30:28.017Z,100723.41
2022-10-23T07:32:54.429Z,100722.63
2022-10-23T07:35:21.799Z,100721.78
2022-10-23T07:40:33.156Z,100723.72
2022-10-23T07:43:00.469Z,100725.72
2022-10-23T07:45:26.960Z,100720.50
2022-10-23T07:47:53.503Z,100714.56
2022-10-23T07:50:19.905Z,100709.41
2022-10-23T07:55:40.508Z,100716.59
2022-10-23T07:58:07.932Z,100709.88
2022-10-23T08:00:34.395Z,100718.63
2022-10-23T08:03:01.763Z,100715.09
2022-10-23T08:05:28.204Z,100709.88
2022-10-23T08:10:48.438Z,100706.31
2022-10-23T08:13:14.940Z,100709.06
2022-10-23T08:15:42.346Z,100707.47
2022-10-23T08:18:08.809Z,100701.13
2022-10-23T08:20:35.233Z,100705.50
2022-10-23T08:25:47.516Z,100704.72
2022-10-23T08:28:13.996Z,100705.50
2022-10-23T08:30:41.304Z,100712.28
2022-10-23T08:33:07.762Z,100718.25
2022-10-23T08:35:35.158Z,100718.25
2022-10-23T08:40:55.562Z,100718.56
2022-10-23T08:43:22.913Z,100725.53
2022-10-23T08:45:50.256Z,100712.44
2022-10-23T08:48:16.704Z,100727.66
2022-10-23T08:50:43.973Z,100728.75
2022-10-23T08:56:05.139Z,100725.22
2022-10-23T08:58:32.467Z,100725.56
2022-10-23T09:00:59.857Z,100727.53
2022-10-23T09:03:27.187Z,100725.97
2022-10-23T09:05:54.476Z,100715.63
2022-10-23T09:11:05.572Z,100729.25
2022-10-23T09:13:32.840Z,100723.88
2022-10-23T09:15:59.266Z,100727.53
2022-10-23T09:18:26.538Z,100718.34
2022-10-23T09:20:53.849Z,100718.00
2022-10-23T09:26:06.092Z,100721.19
2022-10-23T09:28:33.441Z,100725.94
2022-10-23T09:30:59.879Z,100732.31
2022-10-23T09:33:27.198Z,100732.44
2022-10-23T09:35:53.687Z,100734.81
2022-10-23T09:41:05.102Z,100735.66
2022-10-23T09:43:32.466Z,100738.09
2022-10-23T09:45:58.919Z,100730.13
2022-10-23T09:48:25.696Z,100726.97
2022-10-23T09:50:53.076Z,100725.34
2022-10-23T09:56:15.320Z,100725.78
2022-10-23T09:58:41.821Z,100719.00
2022-10-23T10:01:09.299Z,100724.50
2022-10-23T10:03:36.746Z,100724.84
2022-10-23T10:06:03.224Z,100720.97
2022-10-23T10:11:23.880Z,100713.41
2022-10-23T10:13:50.329Z,100718.25
2022-10-23T10:16:17.717Z,100721.44
2022-10-23T10:18:45.226Z,100717.44
2022-10-23T10:21:12.607Z,100720.63
2022-10-23T10:26:34.907Z,100718.97
2022-10-23T10:29:02.312Z,100716.19
2022-10-23T10:31:28.758Z,100722.63
2022-10-23T10:33:56.117Z,100724.22
2022-10-23T10:36:23.525Z,100720.22
2022-10-23T10:41:44.057Z,100717.00
2022-10-23T10:44:10.535Z,100715.38
2022-10-23T10:46:36.967Z,100722.19
2022-10-23T10:49:03.384Z,100716.19
2022-10-23T10:51:30.719Z,100710.22
2022-10-23T10:56:42.158Z,100699.97
2022-10-23T10:59:09.515Z,100701.53
2022-10-23T11:01:36.972Z,100697.13
2022-10-23T11:04:04.526Z,100699.09
2022-10-23T11:06:31.939Z,100707.09
2022-10-23T11:11:42.759Z,100699.16
2022-10-23T11:14:10.128Z,100701.94
2022-10-23T11:16:37.489Z,100699.53
2022-10-23T11:19:03.894Z,100684.44
2022-10-23T11:21:30.335Z,100689.25
2022-10-23T11:26:42.703Z,100703.94
2022-10-23T11:29:09.173Z,100697.97
2022-10-23T11:31:35.617Z,100699.16
2022-10-23T11:34:03.005Z,100699.97
2022-10-23T11:36:30.342Z,100697.19
2022-10-23T11:41:42.877Z,100694.34
2022-10-23T11:44:10.257Z,100686.81
2022-10-23T11:46:36.681Z,100682.41
2022-10-23T11:49:04.096Z,100681.22
2022-10-23T11:51:31.476Z,100682.78
2022-10-23T11:56:52.519Z,100669.28
2022-10-23T11:59:19.897Z,100669.28
2022-10-23T12:01:47.349Z,100663.72
2022-10-23T12:04:13.873Z,100654.19
2022-10-23T12:06:40.323Z,100659.34
2022-10-23T12:12:00.623Z,100663.72
2022-10-23T12:14:27.091Z,100662.09
2022-10-23T12:16:53.816Z,100655.34
2022-10-23T12:19:20.321Z,100658.50
2022-10-23T12:21:47.692Z,100656.50
2022-10-23T12:26:58.862Z,100656.16
2022-10-23T12:29:25.301Z,100660.50
2022-10-23T12:31:52.643Z,100658.91
2022-10-23T12:34:19.084Z,100654.91
2022-10-23T12:36:45.586Z,100658.88
2022-10-23T12:41:57.197Z,100664.44
2022-10-23T12:44:24.607Z,100662.84
2022-10-23T12:46:51.072Z,100670.06
2022-10-23T12:49:18.506Z,100664.91
2022-10-23T12:51:46.010Z,100661.69
2022-10-23T12:57:07.468Z,100672.00
2022-10-23T12:59:33.918Z,100667.19
2022-10-23T13:02:00.472Z,100669.16
2022-10-23T13:04:27.026Z,100664.03
2022-10-23T13:06:54.409Z,100669.59
2022-10-23T13:12:14.870Z,100675.97
2022-10-23T13:14:44.494Z,100686.28
2022-10-23T13:17:11.201Z,100686.72
2022-10-23T13:19:37.641Z,100679.97
2022-10-23T13:22:05.039Z,100676.78
2022-10-23T13:27:25.380Z,100678.81
2022-10-23T13:29:51.835Z,100673.25
2022-10-23T13:32:19.208Z,100679.22
2022-10-23T13:34:53.742Z,100680.44
2022-10-23T13:37:31.283Z,100679.22
2022-10-23T13:42:52.354Z,100672.91
2022-10-23T13:45:18.887Z,100681.63
2022-10-23T13:47:45.672Z,100672.06
2022-10-23T13:50:13.196Z,100674.44
2022-10-23T13:52:39.651Z,100675.69
2022-10-23T13:57:52.048Z,100672.09
2022-10-23T14:00:18.517Z,100665.69
2022-10-23T14:02:45.140Z,100672.84
2022-10-23T14:05:12.592Z,100672.06
2022-10-23T14:07:40.098Z,100669.28
2022-10-23T14:13:01.609Z,100669.28
2022-10-23T14:15:28.079Z,100664.53
2022-10-23T14:17:59.042Z,100663.72
2022-10-23T14:20:27.870Z,100664.13
2022-10-23T14:22:55.418Z,100660.13
2022-10-23T14:28:17.051Z,100672.88
2022-10-23T14:30:43.544Z,100675.66
2022-10-23T14:33:10.963Z,100678.84
2022-10-23T14:35:38.376Z,100673.28
2022-10-23T14:38:04.833Z,100679.66
2022-10-23T14:43:15.534Z,100680.84
2022-10-23T14:45:41.994Z,100673.31
2022-10-23T14:48:08.518Z,100676.88
2022-10-23T14:50:34.947Z,100684.03
2022-10-23T14:53:02.331Z,100675.28
2022-10-23T14:58:23.627Z,100675.31
2022-10-23T15:00:50.117Z,100672.50
2022-10-23T15:03:17.518Z,100672.91
2022-10-23T15:05:44.897Z,100663.34
2022-10-23T15:08:12.257Z,100676.88
2022-10-23T15:13:33.734Z,100668.50
2022-10-23T15:16:00.201Z,100666.56
2022-10-23T15:18:26.670Z,100673.31
2022-10-23T15:20:53.216Z,100668.50
2022-10-23T15:23:20.618Z,100673.63
2022-10-23T15:28:31.238Z,100670.03
2022-10-23T15:30:57.972Z,100662.88
2022-10-23T15:33:25.390Z,100663.66
2022-10-23T15:38:19.264Z,100670.78
2022-10-23T15:43:40.909Z,100665.63
2022-10-23T15:46:07.380Z,100667.63
2022-10-23T15:48:33.848Z,100674.00
2022-10-23T15:51:00.309Z,100675.59
2022-10-23T15:53:27.693Z,100669.22
2022-10-23T16:01:16.410Z,100680.38
2022-10-23T16:03:43.868Z,100682.34
2022-10-23T16:06:10.387Z,100682.34
2022-10-23T16:08:37.786Z,100683.94
2022-10-23T16:13:49.221Z,100681.56
2022-10-23T16:16:15.675Z,100680.38
2022-10-23T16:18:43.105Z,100684.72
2022-10-23T16:21:09.582Z,100676.34
2022-10-23T16:23:36.949Z,100685.53
2022-10-23T16:28:58.419Z,100691.09
2022-10-23T16:31:24.916Z,100687.94
2022-10-23T16:33:51.429Z,100691.88
2022-10-23T16:36:18.835Z,100694.28
2022-10-23T16:38:45.312Z,100691.91
2022-10-23T16:43:38.168Z,100690.72
2022-10-23T16:46:04.626Z,100692.31
2022-10-23T16:48:32.000Z,100697.84
2022-10-23T16:50:58.467Z,100698.63
2022-10-23T16:53:25.883Z,100700.63
2022-10-23T16:55:52.347Z,100701.41
2022-10-23T16:58:19.784Z,100714.56
2022-10-23T17:00:46.230Z,100711.78
2022-10-23T17:03:12.701Z,100705.03
2022-10-23T17:05:40.111Z,100707.81
2022-10-23T17:08:06.577Z,100710.59
2022-10-23T17:10:33.043Z,100716.19
2022-10-23T17:12:59.538Z,100710.63
2022-10-23T17:15:26.998Z,100715.03
2022-10-23T17:17:53.525Z,100717.00
2022-10-23T17:20:20.916Z,100710.22
2022-10-23T17:22:47.390Z,100716.19
2022-10-23T17:25:14.805Z,100717.81
2022-10-23T17:27:41.625Z,100714.63
2022-10-23T17:30:12.525Z,100711.06
2022-10-23T17:32:39.277Z,100713.84
2022-10-23T17:35:06.711Z,100711.81
2022-10-23T17:37:33.167Z,100705.06
2022-10-23T17:40:01.345Z,100709.03
2022-10-23T17:42:28.123Z,100705.06
2022-10-23T17:44:54.596Z,100711.81
2022-10-23T17:47:21.983Z,100709.03
2022-10-23T17:49:48.465Z,100707.44
2022-10-23T17:52:15.835Z,100707.03
2022-10-23T17:54:43.275Z,100701.47
2022-10-23T17:57:10.678Z,100689.94
2022-10-23T17:59:37.348Z,100699.09
2022-10-23T18:02:04.895Z,100695.50
2022-10-23T18:04:31.455Z,100689.94
2022-10-23T18:07:00.106Z,100689.16
2022-10-23T18:09:27.480Z,100684.78
2022-10-23T18:11:53.963Z,100684.78
2022-10-23T18:17:06.072Z,100684.38
2022-10-23T18:19:32.578Z,100684.78
2022-10-23T18:21:59.026Z,100684.78
2022-10-23T18:24:25.522Z,100684.78
2022-10-23T18:26:52.004Z,100679.22
2022-10-23T18:32:14.469Z,100684.00
2022-10-23T18:34:41.866Z,100694.31
2022-10-23T18:37:09.262Z,100696.69
2022-10-23T18:39:35.716Z,100699.47
2022-10-23T18:47:22.682Z,100714.16
2022-10-23T18:49:49.201Z,100707.41
2022-10-23T18:52:15.658Z,100709.78
2022-10-23T18:54:43.050Z,100703.81
2022-10-23T18:57:10.453Z,100693.88
2022-10-23T19:02:21.291Z,100693.91
2022-10-23T19:04:48.804Z,100691.13
2022-10-23T19:07:15.274Z,100697.47
2022-10-23T19:09:41.723Z,100697.47
2022-10-23T19:12:08.263Z,100702.22
2022-10-23T19:17:19.584Z,100701.72
2022-10-23T19:19:47.079Z,100703.31
2022-10-23T19:22:13.494Z,100704.91
2022-10-23T19:24:41.230Z,100700.09
2022-10-23T19:27:08.627Z,100711.66
2022-10-23T19:32:29.245Z,100694.59
2022-10-23T19:34:55.694Z,100699.72
2022-10-23T19:37:22.118Z,100693.00
2022-10-23T19:39:49.456Z,100699.81
2022-10-23T19:42:15.887Z,100701.75
2022-10-23T19:47:28.251Z,100699.75
2022-10-23T19:49:54.676Z,100697.72
2022-10-23T19:52:22.077Z,100699.66
2022-10-23T19:54:48.533Z,100689.69
2022-10-23T19:57:17.043Z,100690.97
2022-10-23T20:02:41.841Z,100682.50
2022-10-23T20:05:08.281Z,100688.53
2022-10-23T20:07:35.663Z,100684.63
2022-10-23T20:10:02.121Z,100683.75
2022-10-23T20:12:28.547Z,100689.72
2022-10-23T20:17:50.132Z,100679.75
2022-10-23T20:20:16.618Z,100676.53
2022-10-23T20:22:44.272Z,100665.03
2022-10-23T20:25:11.742Z,100665.00
2022-10-23T20:27:38.206Z,100664.25
2022-10-23T20:33:00.499Z,100663.41
2022-10-23T20:35:27.882Z,100665.78
2022-10-23T20:37:55.237Z,100667.81
2022-10-23T20:40:22.574Z,100670.97
2022-10-23T20:42:49.955Z,100665.81
2022-10-23T20:48:00.623Z,100650.59
2022-10-23T20:50:27.062Z,100657.88
2022-10-23T20:52:53.480Z,100653.56
2022-10-23T20:55:20.830Z,100651.50
2022-10-23T20:57:49.758Z,100655.16
2022-10-23T21:03:02.044Z,100649.56
2022-10-23T21:05:29.430Z,100644.78
2022-10-23T21:07:56.802Z,100634.41
2022-10-23T21:10:24.167Z,100650.75
2022-10-23T21:12:50.630Z,100642.03
2022-10-23T21:18:26.285Z,100628.88
2022-10-23T21:21:00.215Z,100638.38
2022-10-23T21:23:26.671Z,100639.63
2022-10-23T21:25:53.177Z,100643.69
2022-10-23T21:28:19.646Z,100643.25
2022-10-23T21:33:31.173Z,100640.84
2022-10-23T21:35:58.429Z,100638.91
2022-10-23T21:38:31.215Z,100643.19
2022-10-23T21:40:57.713Z,100647.59
2022-10-23T21:43:24.207Z,100640.44
2022-10-23T21:48:36.805Z,100642.06
2022-10-23T21:51:04.201Z,100636.06
2022-10-23T21:53:31.588Z,100635.25
2022-10-23T21:55:58.079Z,100626.50
2022-10-23T21:58:24.534Z,100622.94
2022-10-23T22:03:45.156Z,100637.66
2022-10-23T22:06:12.531Z,100635.66
2022-10-23T22:08:38.979Z,100627.66
2022-10-23T22:11:06.387Z,100638.09
2022-10-23T22:13:32.819Z,100637.31
2022-10-23T22:18:54.813Z,100651.28
2022-10-23T22:21:21.254Z,100641.31
2022-10-23T22:23:47.693Z,100646.91
2022-10-23T22:26:15.071Z,100647.69
2022-10-23T22:28:41.519Z,100645.28
2022-10-23T22:33:51.910Z,100648.06
2022-10-23T22:36:18.365Z,100646.50
2022-10-23T22:38:44.820Z,100636.13
2022-10-23T22:41:12.167Z,100631.75
2022-10-23T22:43:39.547Z,100627.34
2022-10-23T22:48:50.211Z,100619.03
2022-10-23T22:51:17.601Z,100625.00
2022-10-23T22:53:44.045Z,100618.25
2022-10-23T22:56:11.396Z,100623.03
2022-10-23T22:58:37.871Z,100617.47
2022-10-23T23:03:49.188Z,100614.69
2022-10-23T23:06:15.646Z,100622.66
2022-10-23T23:08:42.168Z,100616.69
2022-10-23T23:11:08.633Z,100614.69
2022-10-23T23:18:55.176Z,100607.56
2022-10-23T23:21:21.644Z,100609.94
2022-10-23T23:23:48.084Z,100601.59
2022-10-23T23:26:15.454Z,100599.16
2022-10-23T23:28:41.916Z,100610.72
2022-10-23T23:34:02.452Z,100610.72
2022-10-23T23:36:28.960Z,100599.97
2022-10-23T23:38:56.439Z,100608.72
2022-10-23T23:41:22.916Z,100596.03
2022-10-23T23:43:49.381Z,100599.22
2022-10-23T23:48:59.730Z,100605.56
2022-10-23T23:51:26.180Z,100595.63
2022-10-23T23:53:53.554Z,100601.59
2022-10-23T23:56:19.988Z,100604.75
2022-10-23T23:58:46.474Z,100603.16
